Time;durP1;ratioP1;P1;durP2;ratioP2;P2;SDS_P1;SDS_P2;PMS_P1;PMS_P2;Temp;Humidity;BMP_temperature;BMP_pressure;BME280_temperature;BME280_humidity;BME280_pressure;Samples;Min_cycle;Max_cycle;Signal;HPM_P1;HPM_P2
2022/04/07 00:00:44;;;;;;;4.18;1.70;;;;;;;8.41;87.85;97975.84;5100846;28;20087;-78
2022/04/07 00:03:10;;;;;;;3.65;1.60;;;;;;;8.41;87.66;97968.63;5082129;28;20032;-77
2022/04/07 00:05:35;;;;;;;4.22;1.48;;;;;;;8.43;87.63;97950.34;5098265;28;20056;-78
2022/04/07 00:08:01;;;;;;;4.30;1.60;;;;;;;8.43;87.43;97957.59;5101664;28;20104;-78
2022/04/07 00:10:26;;;;;;;3.88;1.45;;;;;;;8.44;87.00;97956.53;5096689;28;20366;-78
2022/04/07 00:12:51;;;;;;;2.80;1.25;;;;;;;8.43;87.32;97954.91;5076913;28;20078;-79
2022/04/07 00:15:17;;;;;;;3.83;1.40;;;;;;;8.37;87.09;97951.38;5094868;28;20039;-78
2022/04/07 00:17:42;;;;;;;3.47;1.57;;;;;;;8.37;86.60;97940.66;5095181;28;20035;-79
2022/04/07 00:20:08;;;;;;;2.33;0.93;;;;;;;8.35;86.87;97953.50;5095061;28;20292;-78
2022/04/07 00:22:34;;;;;;;2.88;1.13;;;;;;;8.32;86.92;97949.44;5094626;28;20031;-78
2022/04/07 00:25:00;;;;;;;4.05;1.00;;;;;;;8.29;86.68;97930.31;5076657;28;20035;-80
2022/04/07 00:27:25;;;;;;;2.15;0.95;;;;;;;8.29;86.26;97933.81;5094561;28;20406;-79
2022/04/07 00:29:50;;;;;;;1.93;0.80;;;;;;;8.23;87.11;97920.59;5095021;28;20070;-78
2022/04/07 00:32:15;;;;;;;4.27;1.00;;;;;;;8.25;86.87;97935.38;5094840;28;20035;-79
2022/04/07 00:34:44;;;;;;;1.43;0.80;;;;;;;8.31;86.35;97936.25;5094808;28;20107;-78
2022/04/07 00:37:09;;;;;;;2.33;0.82;;;;;;;8.30;86.10;97921.22;5095643;28;20274;-79
2022/04/07 00:39:35;;;;;;;1.67;0.70;;;;;;;8.36;85.84;97914.88;5099794;28;20051;-78
2022/04/07 00:42:00;;;;;;;1.93;0.83;;;;;;;8.34;85.37;97909.75;5099868;28;20371;-81
2022/04/07 00:44:27;;;;;;;2.33;0.90;;;;;;;8.40;85.43;97907.94;5099179;28;20032;-78
2022/04/07 00:46:53;;;;;;;2.10;1.08;;;;;;;8.42;84.74;97900.44;5097471;28;20092;-78
2022/04/07 00:49:18;;;;;;;2.92;1.00;;;;;;;8.44;84.58;97898.31;5094270;28;20032;-76
2022/04/07 00:51:44;;;;;;;3.05;0.88;;;;;;;8.47;83.98;97894.31;5093508;28;20474;-77
2022/04/07 00:54:10;;;;;;;;;;;;;;;8.50;83.57;97883.09;5094175;28;20039;-77
2022/04/07 00:56:37;;;;;;;4.88;1.00;;;;;;;8.54;82.94;97882.34;5093968;28;19911;-76
2022/04/07 00:59:05;;;;;;;2.58;1.05;;;;;;;8.53;82.70;97878.03;5097245;28;20032;-77
2022/04/07 01:01:31;;;;;;;2.00;0.80;;;;;;;8.56;82.57;97869.47;5097324;28;20549;-76
2022/04/07 01:03:57;;;;;;;2.78;0.90;;;;;;;8.55;82.05;97870.53;5097635;28;20115;-77
2022/04/07 01:06:23;;;;;;;2.50;0.88;;;;;;;8.59;82.01;97868.16;5078890;28;20039;-77
2022/04/07 01:08:49;;;;;;;2.63;0.80;;;;;;;8.56;81.74;97866.78;5096737;28;20473;-76
2022/04/07 01:11:14;;;;;;;2.33;1.00;;;;;;;8.58;81.14;97859.28;5096640;28;20020;-76
2022/04/07 01:13:50;;;;;;;3.47;0.98;;;;;;;8.63;81.31;97872.75;5096371;28;20524;-76
2022/04/07 01:16:18;;;;;;;3.97;1.37;;;;;;;8.62;81.21;97865.75;5096638;28;20032;-76
2022/04/07 01:18:46;;;;;;;2.05;0.80;;;;;;;8.66;80.93;97853.44;5096471;28;20039;-76
2022/04/07 01:21:19;;;;;;;2.22;0.80;;;;;;;8.68;80.40;97850.50;5096376;28;20032;-75
2022/04/07 01:24:04;;;;;;;3.55;0.85;;;;;;;8.66;80.64;97845.41;5096093;28;20032;-75
2022/04/07 01:26:39;;;;;;;2.47;0.80;;;;;;;8.73;80.29;97839.81;5078172;28;20461;-75
2022/04/07 01:29:07;;;;;;;3.55;0.80;;;;;;;8.77;79.85;97832.06;5096305;28;20043;-76
2022/04/07 01:31:32;;;;;;;3.65;0.70;;;;;;;8.77;79.40;97824.03;5095803;28;20024;-76
2022/04/07 01:33:59;;;;;;;2.90;1.17;;;;;;;8.78;79.25;97822.94;5095765;28;20058;-76
2022/04/07 01:36:28;;;;;;;1.65;0.70;;;;;;;8.79;79.25;97819.19;5095544;28;20418;-76
2022/04/07 01:38:54;;;;;;;1.42;0.63;;;;;;;8.77;78.93;97816.78;5095795;28;20382;-75
2022/04/07 01:41:21;;;;;;;4.63;1.20;;;;;;;8.88;78.82;97814.97;5095924;28;20028;-76
2022/04/07 01:43:49;;;;;;;3.70;0.70;;;;;;;8.86;78.61;97803.66;5096037;28;20028;-76
2022/04/07 01:46:14;;;;;;;3.38;0.68;;;;;;;8.84;79.09;97806.59;5096186;28;20355;-77
2022/04/07 01:48:41;;;;;;;1.70;0.60;;;;;;;8.90;78.52;97805.59;5095804;28;20103;-77
2022/04/07 01:51:10;;;;;;;3.55;0.73;;;;;;;8.91;78.72;97796.47;5095687;28;20122;-77
2022/04/07 01:53:36;;;;;;;2.05;0.82;;;;;;;8.95;78.24;97796.75;5095742;28;20032;-76
2022/04/07 01:56:04;;;;;;;1.17;0.50;;;;;;;8.86;78.81;97787.56;5097558;28;20031;-76
2022/04/07 01:58:29;;;;;;;1.88;0.60;;;;;;;8.94;77.88;97798.66;5098769;28;20035;-77
2022/04/07 02:00:55;;;;;;;3.45;0.70;;;;;;;8.99;78.00;97792.47;5099223;28;20032;-76
2022/04/07 02:03:20;;;;;;;3.33;1.17;;;;;;;8.99;77.79;97795.16;5098382;28;20035;-77
2022/04/07 02:05:46;;;;;;;3.58;0.70;;;;;;;9.02;78.27;97783.91;5097461;28;20109;-77
2022/04/07 02:08:11;;;;;;;4.83;0.80;;;;;;;9.00;77.25;97791.41;5095679;28;20036;-76
2022/04/07 02:10:36;;;;;;;3.20;0.80;;;;;;;9.03;77.98;97782.84;5095872;28;20241;-76
2022/04/07 02:13:02;;;;;;;2.83;0.90;;;;;;;9.02;77.86;97775.84;5095911;28;20290;-77
2022/04/07 02:15:27;;;;;;;1.58;0.70;;;;;;;9.00;78.12;97781.47;5095606;28;20539;-76
2022/04/07 02:17:53;;;;;;;2.20;0.65;;;;;;;9.01;78.59;97774.22;5095403;28;20036;-77
2022/04/07 02:20:19;;;;;;;2.88;1.08;;;;;;;9.00;78.45;97767.22;5095310;28;20107;-77
2022/04/07 02:22:44;;;;;;;2.58;0.98;;;;;;;8.96;78.62;97766.94;5095694;28;20043;-76
2022/04/07 02:25:10;;;;;;;5.10;0.88;;;;;;;8.99;79.08;97776.34;5095704;28;20447;-77
2022/04/07 02:27:37;;;;;;;2.22;0.93;;;;;;;9.02;78.93;97765.91;5095521;28;20024;-77
2022/04/07 02:30:05;;;;;;;3.38;0.80;;;;;;;9.05;78.51;97759.22;5095821;28;20056;-76
2022/04/07 02:32:31;;;;;;;4.53;0.95;;;;;;;9.07;78.88;97762.47;5095559;28;20107;-77
2022/04/07 02:34:56;;;;;;;3.58;1.00;;;;;;;9.01;79.63;97742.81;5095187;28;20058;-77
2022/04/07 02:37:22;;;;;;;2.58;1.17;;;;;;;8.95;80.89;97743.06;5095330;28;20036;-76
2022/04/07 02:39:47;;;;;;;2.28;1.00;;;;;;;8.95;80.56;97729.63;5094865;28;20031;-76
2022/04/07 02:42:13;;;;;;;3.33;0.90;;;;;;;8.87;81.21;97722.84;5094682;28;20410;-76
2022/04/07 02:44:38;;;;;;;2.30;1.03;;;;;;;8.86;81.19;97725.81;5095043;28;20028;-76
2022/04/07 02:47:04;;;;;;;3.27;1.30;;;;;;;8.82;81.73;97736.25;5094800;28;20250;-76
2022/04/07 02:49:29;;;;;;;2.92;0.85;;;;;;;8.80;81.98;97708.03;5076584;28;20028;-76
2022/04/07 02:51:54;;;;;;;2.63;1.02;;;;;;;8.74;82.60;97717.13;5094730;28;20251;-76
2022/04/07 02:54:20;;;;;;;3.07;1.20;;;;;;;8.70;82.81;97698.84;5095584;28;20050;-77
2022/04/07 02:56:46;;;;;;;2.65;1.00;;;;;;;8.67;83.19;97691.31;5095102;28;20422;-77
2022/04/07 02:59:11;;;;;;;8.38;1.45;;;;;;;8.72;83.47;97685.19;5094743;28;20027;-77
2022/04/07 03:01:37;;;;;;;2.90;1.00;;;;;;;8.65;83.54;97665.81;5096115;28;20062;-77
2022/04/07 03:04:02;;;;;;;2.73;1.10;;;;;;;8.64;83.66;97669.56;5096396;28;20028;-77
2022/04/07 03:06:29;;;;;;;2.75;1.05;;;;;;;8.63;83.89;97665.25;5096341;28;20032;-77
2022/04/07 03:08:54;;;;;;;5.00;1.10;;;;;;;8.66;83.31;97648.63;5095861;28;20032;-77
2022/04/07 03:11:20;;;;;;;2.65;1.35;;;;;;;8.73;82.58;97637.66;5094621;28;20028;-76
2022/04/07 03:13:45;;;;;;;2.10;0.87;;;;;;;8.73;82.24;97651.91;5094768;28;20031;-76
2022/04/07 03:16:10;;;;;;;2.73;0.97;;;;;;;8.77;82.59;97649.50;5095011;28;20028;-77
2022/04/07 03:18:36;;;;;;;3.08;1.02;;;;;;;8.78;82.32;97640.38;5094224;28;20262;-76
2022/04/07 03:21:02;;;;;;;2.92;1.15;;;;;;;8.83;81.91;97643.06;5094243;28;20082;-77
2022/04/07 03:23:27;;;;;;;1.77;0.73;;;;;;;8.87;81.71;97636.13;5093988;28;20032;-77
2022/04/07 03:25:53;;;;;;;1.83;0.73;;;;;;;8.89;81.90;97631.31;5076132;28;20389;-76
2022/04/07 03:28:18;;;;;;;2.35;0.63;;;;;;;8.93;81.27;97629.72;5094114;28;20258;-76
2022/04/07 03:30:44;;;;;;;4.00;0.90;;;;;;;8.97;80.73;97618.16;5094373;28;20085;-76
2022/04/07 03:33:10;;;;;;;1.65;0.60;;;;;;;8.98;80.54;97605.53;5093888;28;20028;-76
2022/04/07 03:35:38;;;;;;;2.75;0.77;;;;;;;9.02;80.03;97618.19;5093715;28;20032;-76
2022/04/07 03:38:05;;;;;;;1.55;0.73;;;;;;;9.03;79.86;97624.38;5093852;28;20035;-76
2022/04/07 03:40:30;;;;;;;3.10;1.05;;;;;;;9.05;79.27;97609.63;5094000;28;20051;-76
2022/04/07 03:42:55;;;;;;;2.85;0.93;;;;;;;9.08;78.86;97618.22;5094064;28;20113;-75
2022/04/07 03:45:21;;;;;;;1.47;0.60;;;;;;;9.15;78.56;97605.31;5093504;28;20040;-76
2022/04/07 03:47:47;;;;;;;1.23;0.60;;;;;;;9.15;78.77;97598.06;5094031;28;20273;-78
2022/04/07 03:50:12;;;;;;;1.73;0.68;;;;;;;9.17;77.90;97603.19;5094714;28;20032;-77
2022/04/07 03:52:38;;;;;;;2.35;0.50;;;;;;;9.20;77.65;97594.59;5094611;28;20035;-77
2022/04/07 03:55:04;;;;;;;1.27;0.60;;;;;;;9.22;77.04;97603.22;5094585;28;20032;-78
2022/04/07 03:57:30;;;;;;;1.33;0.60;;;;;;;9.24;77.17;97609.13;5097205;28;20536;-80
2022/04/07 03:59:55;;;;;;;3.28;0.93;;;;;;;9.27;76.89;97593.28;5097424;28;20028;-78
2022/04/07 04:02:20;;;;;;;2.17;0.70;;;;;;;9.32;76.27;97581.72;5095899;28;20104;-80
2022/04/07 04:04:46;;;;;;;1.60;0.60;;;;;;;9.34;75.80;97580.41;5093763;28;20119;-78
2022/04/07 04:07:11;;;;;;;1.83;0.70;;;;;;;9.37;75.00;97574.50;5095441;28;20290;-78
2022/04/07 04:09:37;;;;;;;1.85;0.50;;;;;;;9.35;75.23;97568.56;5095105;28;20310;-78
2022/04/07 04:12:03;;;;;;;4.50;0.95;;;;;;;9.35;75.06;97547.06;5095130;28;20378;-78
2022/04/07 04:14:29;;;;;;;2.67;0.80;;;;;;;9.40;74.83;97563.22;5094661;28;20020;-77
2022/04/07 04:16:55;;;;;;;2.03;0.50;;;;;;;9.46;74.69;97547.09;5095771;28;20032;-79
2022/04/07 04:19:20;;;;;;;1.08;0.50;;;;;;;9.46;74.74;97542.53;5095478;28;20483;-78
2022/04/07 04:21:45;;;;;;;2.60;0.70;;;;;;;9.48;74.73;97535.00;5095815;28;20451;-77
2022/04/07 04:24:11;;;;;;;2.70;0.50;;;;;;;9.50;74.55;97534.72;5095994;28;20406;-78
2022/04/07 04:26:36;;;;;;;1.45;0.63;;;;;;;9.47;74.48;97537.97;5094969;28;20259;-78
2022/04/07 04:29:02;;;;;;;1.38;0.52;;;;;;;9.48;74.54;97531.53;5096006;28;20044;-79
2022/04/07 04:31:28;;;;;;;2.75;0.90;;;;;;;9.50;74.86;97527.47;5095541;28;20040;-78
2022/04/07 04:33:54;;;;;;;1.05;0.47;;;;;;;9.45;75.63;97515.94;5099906;28;20450;-79
2022/04/07 04:36:19;;;;;;;;;;;;;;;9.49;75.00;97500.88;5100133;28;20040;-78
2022/04/07 04:38:45;;;;;;;2.80;0.77;;;;;;;9.47;75.42;97494.97;5080818;28;20001;-80
2022/04/07 04:41:10;;;;;;;3.45;0.77;;;;;;;9.45;75.32;97495.22;5101883;28;20032;-78
2022/04/07 04:43:35;;;;;;;1.87;0.50;;;;;;;9.40;77.42;97498.72;5100331;28;20039;-77
2022/04/07 04:46:02;;;;;;;3.37;1.07;;;;;;;9.21;80.54;97491.44;5099423;28;20658;-80
2022/04/07 04:48:27;;;;;;;1.02;0.40;;;;;;;8.94;82.63;97487.13;5099712;28;20032;-80
2022/04/07 04:50:52;;;;;;;1.60;0.80;;;;;;;8.76;84.04;97474.19;5099218;28;20035;-79
2022/04/07 04:53:18;;;;;;;3.33;0.83;;;;;;;8.70;84.39;97459.94;5080932;28;20330;-79
2022/04/07 04:55:43;;;;;;;3.93;0.90;;;;;;;8.59;85.85;97479.78;5099971;28;20111;-79
2022/04/07 04:58:08;;;;;;;3.03;1.20;;;;;;;8.55;86.77;97461.78;5099180;28;20259;-78
2022/04/07 05:00:34;;;;;;;2.13;0.90;;;;;;;8.43;88.19;97458.50;5098979;28;20286;-80
2022/04/07 05:02:59;;;;;;;3.80;0.90;;;;;;;8.32;89.45;97457.69;5098357;28;20274;-77
2022/04/07 05:05:24;;;;;;;2.50;0.90;;;;;;;8.31;90.00;97442.63;5098422;28;20386;-76
2022/04/07 05:07:50;;;;;;;2.10;0.80;;;;;;;8.29;90.21;97440.19;5097672;28;20381;-79
2022/04/07 05:10:15;;;;;;;2.60;0.87;;;;;;;8.28;90.15;97429.72;5098143;28;20262;-80
2022/04/07 05:12:40;;;;;;;1.90;0.80;;;;;;;8.22;90.81;97428.91;5079243;28;20024;-76
2022/04/07 05:15:07;;;;;;;2.03;0.80;;;;;;;8.23;90.94;97410.97;5098225;28;20634;-79
2022/04/07 05:17:33;;;;;;;2.67;1.00;;;;;;;8.25;90.72;97416.84;5096611;28;20730;-76
2022/04/07 05:19:58;;;;;;;1.73;0.68;;;;;;;8.20;91.50;97401.56;5096343;28;20066;-77
2022/04/07 05:22:23;;;;;;;2.90;1.03;;;;;;;8.24;91.34;97386.53;5096077;28;20028;-78
2022/04/07 05:24:49;;;;;;;1.70;0.90;;;;;;;8.24;91.43;97391.88;5097118;28;20036;-77
2022/04/07 05:27:15;;;;;;;2.88;1.15;;;;;;;8.25;91.19;97396.19;5096819;28;20043;-77
2022/04/07 05:29:41;;;;;;;2.70;0.90;;;;;;;8.30;91.29;97373.94;5096722;28;20052;-78
2022/04/07 05:32:07;;;;;;;2.63;1.00;;;;;;;8.30;91.45;97358.66;5097620;28;20032;-77
2022/04/07 05:34:32;;;;;;;3.58;1.10;;;;;;;8.31;90.81;97375.56;5096999;28;20036;-77
2022/04/07 05:36:58;;;;;;;3.75;1.10;;;;;;;8.38;90.37;97360.06;5097386;28;20032;-76
2022/04/07 05:39:24;;;;;;;2.13;0.90;;;;;;;8.44;89.93;97355.47;5098270;28;20060;-78
2022/04/07 05:41:49;;;;;;;2.10;0.90;;;;;;;8.48;89.99;97353.88;5082803;28;20036;-77
2022/04/07 05:44:14;;;;;;;2.17;0.95;;;;;;;8.52;89.42;97355.78;5101170;28;20107;-77
2022/04/07 05:46:40;;;;;;;2.15;0.70;;;;;;;8.60;88.42;97327.59;5099817;28;20069;-78
2022/04/07 05:49:05;;;;;;;3.20;1.60;;;;;;;8.61;87.68;97331.88;5101184;28;20032;-77
2022/04/07 05:51:30;;;;;;;2.03;0.80;;;;;;;8.67;87.49;97331.63;5100664;28;20517;-79
2022/04/07 05:53:56;;;;;;;1.98;0.80;;;;;;;8.71;86.89;97323.88;5097865;28;20035;-78
2022/04/07 05:56:21;;;;;;;1.80;0.60;;;;;;;8.74;86.60;97307.22;5097787;28;20066;-78
2022/04/07 05:58:46;;;;;;;2.25;0.70;;;;;;;8.82;85.78;97305.84;5097942;28;20043;-77
2022/04/07 06:01:12;;;;;;;2.78;0.80;;;;;;;8.87;85.61;97301.31;5098183;28;20437;-77
2022/04/07 06:03:37;;;;;;;1.55;0.60;;;;;;;8.95;84.81;97294.59;5081192;28;20046;-78
2022/04/07 06:06:03;;;;;;;3.10;0.60;;;;;;;9.01;83.95;97286.25;5101484;28;20458;-78
2022/04/07 06:08:28;;;;;;;1.53;0.50;;;;;;;9.01;83.18;97288.94;5102920;28;20024;-78
2022/04/07 06:10:53;;;;;;;0.90;0.40;;;;;;;9.00;83.99;97295.38;5102807;28;20269;-79
2022/04/07 06:13:19;;;;;;;3.58;0.52;;;;;;;8.94;85.12;97285.72;5100983;28;20082;-77
2022/04/07 06:15:44;;;;;;;2.43;1.27;;;;;;;8.88;85.57;97275.25;5102070;28;20503;-77
2022/04/07 06:18:09;;;;;;;2.00;0.70;;;;;;;8.81;85.80;97251.38;5100958;28;20051;-77
2022/04/07 06:20:35;;;;;;;0.53;0.33;;;;;;;8.84;86.08;97271.50;5083423;28;20757;-78
2022/04/07 06:23:00;;;;;;;3.00;0.67;;;;;;;8.82;85.60;97266.41;5101092;28;20282;-80
2022/04/07 06:25:26;;;;;;;2.53;0.60;;;;;;;8.83;85.43;97272.56;5099018;28;20258;-79
2022/04/07 06:27:52;;;;;;;0.75;0.40;;;;;;;8.78;85.82;97259.19;5098755;28;20028;-78
2022/04/07 06:30:20;;;;;;;0.88;0.40;;;;;;;8.74;86.48;97247.38;5097342;28;20054;-80
2022/04/07 06:32:47;;;;;;;3.40;0.60;;;;;;;8.68;86.41;97247.34;5097359;28;20064;-79
2022/04/07 06:35:15;;;;;;;2.63;0.70;;;;;;;8.73;85.60;97238.50;5098081;28;20128;-79
2022/04/07 06:37:56;;;;;;;2.65;0.60;;;;;;;8.69;85.51;97219.44;5097111;28;20514;-80
2022/04/07 06:40:23;;;;;;;5.50;0.70;;;;;;;8.70;84.83;97231.78;5096709;28;20047;-79
2022/04/07 06:42:50;;;;;;;2.08;0.70;;;;;;;8.69;84.89;97230.19;5096778;28;20039;-79
2022/04/07 06:45:16;;;;;;;2.45;0.73;;;;;;;8.68;84.45;97204.41;5098088;28;20052;-78
2022/04/07 06:47:42;;;;;;;1.55;0.50;;;;;;;8.68;84.40;97204.41;5097733;28;20379;-77
2022/04/07 06:50:13;;;;;;;0.70;0.40;;;;;;;8.74;83.43;97193.69;5097353;28;20042;-79
2022/04/07 06:52:39;;;;;;;0.50;0.30;;;;;;;8.76;83.83;97173.53;5079561;28;20028;-78
2022/04/07 06:55:05;;;;;;;1.33;0.50;;;;;;;8.73;83.79;97175.97;5096715;28;20429;-78
2022/04/07 06:57:30;;;;;;;;;;;;;;;8.75;83.66;97184.56;5098603;28;20032;-78
2022/04/07 06:59:56;;;;;;;1.50;0.52;;;;;;;8.73;83.95;97170.59;5097280;28;19993;-79
2022/04/07 07:02:21;;;;;;;0.93;0.57;;;;;;;8.72;84.13;97152.88;5099094;28;20028;-78
2022/04/07 07:04:47;;;;;;;0.68;0.38;;;;;;;8.72;84.42;97145.63;5080269;28;20512;-78
2022/04/07 07:07:13;;;;;;;1.37;0.70;;;;;;;8.72;84.83;97128.72;5097563;28;20485;-78
2022/04/07 07:09:38;;;;;;;;;;;;;;;8.70;85.33;97142.41;5097259;28;20035;-79
2022/04/07 07:12:04;;;;;;;1.67;0.50;;;;;;;8.75;85.12;97120.13;5077836;28;19923;-77
2022/04/07 07:14:31;;;;;;;1.00;0.47;;;;;;;8.74;84.87;97107.78;5095785;28;20039;-79
2022/04/07 07:16:56;;;;;;;1.67;0.63;;;;;;;8.76;85.24;97102.94;5095462;28;20122;-78
2022/04/07 07:19:28;;;;;;;1.37;0.63;;;;;;;8.85;85.03;97095.91;5094881;28;20081;-77
2022/04/07 07:21:53;;;;;;;0.80;0.50;;;;;;;8.81;85.19;97094.84;5095577;28;20024;-77
2022/04/07 07:24:18;;;;;;;1.65;0.55;;;;;;;8.80;85.93;97079.81;5096141;28;20028;-79
2022/04/07 07:26:45;;;;;;;1.80;0.43;;;;;;;8.82;85.80;97067.72;5096260;28;20032;-79
2022/04/07 07:29:10;;;;;;;3.80;0.82;;;;;;;8.80;85.62;97066.41;5096873;28;20290;-79
2022/04/07 07:31:36;;;;;;;3.37;0.73;;;;;;;8.81;85.89;97043.84;5095767;28;20386;-78
2022/04/07 07:34:03;;;;;;;2.22;0.50;;;;;;;8.73;86.78;97047.13;5097182;28;20258;-78
2022/04/07 07:36:30;;;;;;;1.23;0.50;;;;;;;8.64;87.88;97044.19;5096729;28;20072;-79
2022/04/07 07:38:56;;;;;;;0.90;0.40;;;;;;;8.64;87.51;97023.53;5076874;28;20071;-79
2022/04/07 07:41:21;;;;;;;1.63;0.65;;;;;;;8.65;87.19;97027.00;5094556;28;20036;-79
2022/04/07 07:43:47;;;;;;;2.67;0.60;;;;;;;8.58;87.55;97015.78;5093941;28;20028;-80
2022/04/07 07:46:12;;;;;;;0.40;0.20;;;;;;;8.54;88.41;97023.59;5095545;28;20054;-79
2022/04/07 07:48:37;;;;;;;1.00;0.50;;;;;;;8.52;88.79;97025.72;5094825;28;20424;-79
2022/04/07 07:51:05;;;;;;;3.75;0.90;;;;;;;8.53;89.13;97003.19;5093597;28;20372;-76
2022/04/07 07:53:31;;;;;;;3.00;1.08;;;;;;;8.46;89.74;96977.72;5092542;28;20475;-78
2022/04/07 07:55:56;;;;;;;1.27;0.50;;;;;;;8.45;90.01;96987.66;5094523;28;20039;-78
2022/04/07 07:58:23;;;;;;;0.95;0.52;;;;;;;8.42;89.84;96976.69;5095148;28;20036;-78
2022/04/07 08:00:49;;;;;;;2.70;0.60;;;;;;;8.39;89.88;96948.53;5096773;28;20047;-78
2022/04/07 08:03:15;;;;;;;1.30;0.52;;;;;;;8.48;89.94;96940.69;5095586;28;20463;-79
2022/04/07 08:05:41;;;;;;;0.80;0.35;;;;;;;8.45;90.40;96952.78;5094894;28;20111;-78
2022/04/07 08:08:06;;;;;;;0.57;0.32;;;;;;;8.46;90.22;96937.47;5095885;28;20056;-79
2022/04/07 08:10:32;;;;;;;1.00;0.40;;;;;;;8.42;91.05;96958.69;5095130;28;20036;-79
2022/04/07 08:12:57;;;;;;;2.50;0.73;;;;;;;8.40;91.19;96923.31;5095883;28;20118;-79
2022/04/07 08:15:24;;;;;;;0.95;0.35;;;;;;;8.40;91.38;96925.19;5096869;28;20093;-78
2022/04/07 08:17:50;;;;;;;0.80;0.50;;;;;;;8.44;91.28;96929.69;5095841;28;20031;-78
2022/04/07 08:20:16;;;;;;;4.47;0.52;;;;;;;8.48;91.03;96901.25;5094048;28;20111;-78
2022/04/07 08:22:41;;;;;;;1.38;0.40;;;;;;;8.59;90.71;96892.06;5095538;28;20040;-78
2022/04/07 08:25:07;;;;;;;1.67;0.50;;;;;;;8.65;90.85;96890.94;5095284;28;20114;-79
2022/04/07 08:27:33;;;;;;;1.83;0.50;;;;;;;8.72;90.85;96895.22;5094740;28;20258;-79
2022/04/07 08:29:58;;;;;;;1.75;0.30;;;;;;;8.80;90.37;96884.66;5078288;28;20052;-77
2022/04/07 08:32:23;;;;;;;0.57;0.30;;;;;;;8.89;89.37;96880.31;5095511;28;20040;-79
2022/04/07 08:34:52;;;;;;;3.28;0.40;;;;;;;8.95;89.91;96870.34;5095728;28;20016;-78
2022/04/07 08:37:18;;;;;;;1.67;0.20;;;;;;;8.97;89.79;96855.53;5094443;28;20032;-79
2022/04/07 08:39:43;;;;;;;;;;;;;;;9.03;89.79;96862.47;5096630;28;20351;-79
2022/04/07 08:42:08;;;;;;;0.80;0.37;;;;;;;9.11;89.39;96862.97;5096209;28;19978;-79
2022/04/07 08:44:34;;;;;;;0.55;0.28;;;;;;;9.15;89.34;96827.19;5094997;28;20265;-78
2022/04/07 08:47:00;;;;;;;0.38;0.30;;;;;;;9.19;89.93;96828.22;5095897;28;20086;-80
2022/04/07 08:49:29;;;;;;;0.88;0.40;;;;;;;9.30;88.88;96821.69;5095802;28;20119;-78
2022/04/07 08:51:54;;;;;;;0.38;0.30;;;;;;;9.32;88.98;96819.50;5076995;28;20039;-77
2022/04/07 08:54:20;;;;;;;0.70;0.40;;;;;;;9.33;89.27;96780.78;5076513;28;20024;-77
2022/04/07 08:56:46;;;;;;;;;;;;;;;9.39;88.59;96821.84;5094186;28;20723;-78
2022/04/07 08:59:12;;;;;;;0.60;0.30;;;;;;;9.59;87.51;96820.81;5095079;28;19916;-77
2022/04/07 09:01:37;;;;;;;1.20;0.40;;;;;;;9.68;87.58;96827.16;5094893;28;20036;-78
2022/04/07 09:04:03;;;;;;;1.10;0.50;;;;;;;9.73;87.05;96827.09;5093010;28;20032;-77
2022/04/07 09:06:29;;;;;;;1.83;0.20;;;;;;;9.81;87.71;96799.59;5093938;28;20055;-77
2022/04/07 09:08:54;;;;;;;;;;;;;;;9.90;86.71;96786.31;5097752;28;20440;-77
2022/04/07 09:11:21;;;;;;;0.63;0.30;;;;;;;9.92;87.71;96778.75;5094159;28;19998;-78
2022/04/07 09:13:47;;;;;;;0.38;0.15;;;;;;;9.90;88.26;96803.22;5094804;28;20382;-79
2022/04/07 09:16:14;;;;;;;0.30;0.20;;;;;;;9.95;88.06;96789.72;5095819;28;20032;-77
2022/04/07 09:18:41;;;;;;;0.47;0.25;;;;;;;9.97;88.36;96813.66;5096479;28;20107;-78
2022/04/07 09:21:08;;;;;;;0.63;0.20;;;;;;;9.89;90.15;96865.38;5079121;28;20032;-78
2022/04/07 09:23:41;;;;;;;0.88;0.20;;;;;;;9.02;87.62;96946.00;5098339;28;20024;-78
2022/04/07 09:26:12;;;;;;;0.25;0.10;;;;;;;8.20;89.62;96937.56;5079850;28;20028;-79
2022/04/07 09:28:37;;;;;;;0.30;0.10;;;;;;;7.76;90.43;96926.72;5097459;28;20398;-78
2022/04/07 09:31:03;;;;;;;0.30;0.20;;;;;;;7.63;91.23;96922.72;5077677;28;20136;-79
2022/04/07 09:33:29;;;;;;;0.10;0.10;;;;;;;7.53;92.80;96938.81;5077327;28;20092;-79
2022/04/07 09:36:05;;;;;;;0.30;0.20;;;;;;;7.35;93.34;96960.78;5077400;28;20063;-78
2022/04/07 09:38:32;;;;;;;1.45;0.20;;;;;;;7.04;94.62;96943.94;5077320;28;20024;-77
2022/04/07 09:41:04;;;;;;;0.20;0.13;;;;;;;7.03;95.69;96944.19;5077047;28;20102;-78
2022/04/07 09:43:41;;;;;;;2.10;0.30;;;;;;;6.88;95.76;96944.97;5058756;28;20131;-79
2022/04/07 09:46:15;;;;;;;0.43;0.30;;;;;;;6.75;95.98;96949.00;5076788;28;20044;-79
2022/04/07 09:48:58;;;;;;;1.67;0.77;;;;;;;6.63;96.84;96942.28;5076845;28;20033;-79
2022/04/07 09:51:25;;;;;;;1.50;0.50;;;;;;;6.56;97.65;96932.63;5076052;28;20033;-77
2022/04/07 09:53:54;;;;;;;0.88;0.40;;;;;;;6.66;98.03;96939.06;5059710;28;20455;-80
2022/04/07 09:56:20;;;;;;;1.20;0.50;;;;;;;6.68;98.24;96937.72;5077346;28;20030;-79
2022/04/07 09:58:46;;;;;;;;;;;;;;;6.77;98.22;96944.19;5076736;28;20403;-79
2022/04/07 10:01:13;;;;;;;2.58;0.63;;;;;;;6.79;97.80;96946.59;5076897;28;19931;-78
2022/04/07 10:03:39;;;;;;;1.15;0.50;;;;;;;6.81;97.75;96931.03;5075944;28;20382;-79
2022/04/07 10:06:06;;;;;;;1.73;0.65;;;;;;;6.89;98.37;96930.53;5076315;28;20036;-79
2022/04/07 10:08:32;;;;;;;2.95;0.73;;;;;;;6.99;98.04;96932.44;5076543;28;20566;-79
2022/04/07 10:10:58;;;;;;;1.35;0.47;;;;;;;7.11;98.10;96939.13;5075545;28;20029;-77
2022/04/07 10:13:25;;;;;;;1.95;0.47;;;;;;;7.23;98.20;96938.84;5075341;28;20033;-78
2022/04/07 10:15:51;;;;;;;3.38;0.60;;;;;;;7.39;97.80;96937.75;5074845;28;20025;-77
2022/04/07 10:18:26;;;;;;;1.58;0.60;;;;;;;7.44;97.39;96936.97;5075496;28;20029;-78
2022/04/07 10:20:54;;;;;;;1.30;0.50;;;;;;;7.43;97.15;96936.16;5056951;28;20056;-77
2022/04/07 10:23:26;;;;;;;1.77;0.57;;;;;;;7.42;97.17;96933.75;5075430;28;20029;-77
2022/04/07 10:25:54;;;;;;;1.98;0.82;;;;;;;7.44;97.11;96936.97;5074855;28;20028;-79
2022/04/07 10:28:20;;;;;;;3.03;0.70;;;;;;;7.60;97.56;96933.19;5076010;28;20025;-78
2022/04/07 10:30:50;;;;;;;2.50;0.70;;;;;;;7.71;96.92;96921.34;5094495;28;20450;-79
2022/04/07 10:33:33;;;;;;;2.65;0.90;;;;;;;7.82;97.45;96919.47;5097876;28;20282;-78
2022/04/07 10:35:58;;;;;;;4.03;1.10;;;;;;;8.02;96.51;96916.72;5097684;28;20043;-78
2022/04/07 10:38:42;;;;;;;1.38;0.65;;;;;;;8.29;96.45;96930.56;5096519;28;20032;-78
2022/04/07 10:41:08;;;;;;;3.05;1.40;;;;;;;8.51;96.34;96927.53;5079382;28;20127;-79
2022/04/07 10:43:40;;;;;;;3.63;1.25;;;;;;;8.67;96.44;96925.56;5080349;28;20024;-79
2022/04/07 10:46:13;;;;;;;2.70;1.15;;;;;;;8.84;95.72;96914.44;5096900;28;20040;-78
2022/04/07 10:48:50;;;;;;;3.63;1.45;;;;;;;8.85;95.36;96919.53;5098495;28;20724;-78
2022/04/07 10:51:16;;;;;;;4.55;1.80;;;;;;;8.95;94.75;96916.78;5096672;28;20024;-80
2022/04/07 10:53:42;;;;;;;;;;;;;;;8.90;94.82;96932.94;5098513;28;20035;-79
2022/04/07 10:56:21;;;;;;;3.45;1.45;;;;;;;9.11;93.57;96919.38;5096372;28;20224;-80
2022/04/07 10:58:49;;;;;;;5.43;1.70;;;;;;;9.16;93.65;96930.84;5096363;28;20078;-80
2022/04/07 11:01:33;;;;;;;4.72;1.25;;;;;;;9.24;93.84;96927.56;5099168;28;20166;-81
2022/04/07 11:04:25;;;;;;;3.42;1.20;;;;;;;9.38;91.39;96915.09;5097411;28;20036;-81
2022/04/07 11:07:10;;;;;;;4.15;1.15;;;;;;;9.58;90.44;96929.41;5097179;28;20061;-82
2022/04/07 11:09:57;;;;;;;3.33;0.95;;;;;;;9.74;86.63;96931.66;5097422;28;20038;-80
2022/04/07 11:12:28;;;;;;;2.03;0.70;;;;;;;9.62;88.26;96941.22;5097938;28;20028;-82
2022/04/07 11:15:17;;;;;;;2.20;0.70;;;;;;;9.71;86.10;96950.25;5099126;28;20115;-82
2022/04/07 11:17:43;;;;;;;3.17;0.90;;;;;;;9.64;84.15;96930.97;5097997;28;20028;-79
2022/04/07 11:20:16;;;;;;;3.60;0.98;;;;;;;9.52;82.08;96947.47;5098840;28;20028;-81
2022/04/07 11:23:08;;;;;;;1.90;0.75;;;;;;;9.49;82.05;96934.63;5099703;28;20455;-80
2022/04/07 11:25:38;;;;;;;1.30;0.70;;;;;;;9.69;77.39;96949.72;5098760;28;20054;-81
2022/04/07 11:28:14;;;;;;;1.50;0.70;;;;;;;9.51;77.24;96950.44;5098843;28;20060;-81
2022/04/07 11:30:44;;;;;;;2.03;0.60;;;;;;;9.55;75.02;96946.91;5098226;28;20584;-83
2022/04/07 11:33:27;;;;;;;2.70;1.00;;;;;;;9.42;76.88;96952.16;5099446;28;20032;-81
2022/04/07 11:36:06;;;;;;;2.35;0.70;;;;;;;9.45;76.24;96968.50;5098704;28;20032;-83
2022/04/07 11:38:43;;;;;;;2.50;0.57;;;;;;;9.42;77.77;96970.94;5100745;28;20057;-81
2022/04/07 11:41:11;;;;;;;2.10;0.70;;;;;;;9.43;77.53;96965.31;5100593;28;20040;-83
2022/04/07 11:43:43;;;;;;;0.93;0.50;;;;;;;9.53;75.92;96969.78;5100510;28;20508;-80